Time;durP1;ratioP1;P1;durP2;ratioP2;P2;SDS_P1;SDS_P2;PMS_P1;PMS_P2;Temp;Humidity;BMP_temperature;BMP_pressure;BME280_temperature;BME280_humidity;BME280_pressure;Samples;Min_cycle;Max_cycle;Signal;HPM_P1;HPM_P2
2022/02/27 00:02:01;;;;;;;19.90;6.70;;;;;;;7.11;52.31;103351.31;4989287;28;96858;-77
2022/02/27 00:04:27;;;;;;;16.30;6.30;;;;;;;6.91;52.83;103341.25;4987399;28;96881;-77
2022/02/27 00:06:54;;;;;;;14.82;6.20;;;;;;;6.75;53.83;103351.47;4990223;28;99327;-76
2022/02/27 00:09:20;;;;;;;15.55;6.43;;;;;;;7.26;52.06;103342.84;4992054;28;96813;-76
2022/02/27 00:11:49;;;;;;;20.52;5.93;;;;;;;7.27;52.31;103343.75;4985690;28;99547;-76
2022/02/27 00:14:15;;;;;;;16.90;6.18;;;;;;;7.03;52.62;103344.13;4994429;28;99154;-76
2022/02/27 00:16:42;;;;;;;15.07;6.35;;;;;;;7.00;52.81;103347.59;4989469;28;98857;-75
2022/02/27 00:19:08;;;;;;;15.27;6.05;;;;;;;6.80;53.35;103333.16;4993966;28;97137;-77
2022/02/27 00:21:34;;;;;;;18.50;6.82;;;;;;;7.02;53.09;103339.75;4990599;28;96923;-76
2022/02/27 00:24:01;;;;;;;17.95;6.13;;;;;;;6.67;53.66;103346.88;4990704;28;99427;-76
2022/02/27 00:26:27;;;;;;;15.75;5.70;;;;;;;6.80;53.50;103341.03;4985282;28;99168;-76
2022/02/27 00:28:55;;;;;;;17.40;5.93;;;;;;;6.60;54.05;103344.97;4978264;28;97475;-76
2022/02/27 00:31:21;;;;;;;13.48;5.65;;;;;;;6.68;54.01;103341.66;4992206;28;98899;-76
2022/02/27 00:33:47;;;;;;;17.42;6.32;;;;;;;7.01;53.20;103343.22;4990796;28;100410;-75
2022/02/27 00:36:14;;;;;;;14.95;6.05;;;;;;;6.88;53.60;103341.22;4997339;28;99375;-76
2022/02/27 00:38:40;;;;;;;13.45;5.85;;;;;;;6.97;53.15;103336.13;4987990;28;98038;-75
2022/02/27 00:41:06;;;;;;;21.73;6.03;;;;;;;7.22;52.59;103340.16;4998459;28;96828;-75
2022/02/27 00:43:33;;;;;;;15.35;6.60;;;;;;;7.09;52.18;103344.25;4989283;28;99047;-75
2022/02/27 00:46:01;;;;;;;12.75;6.00;;;;;;;7.33;52.21;103343.84;4988798;28;98902;-76
2022/02/27 00:48:27;;;;;;;15.88;5.45;;;;;;;6.99;52.61;103344.94;4994792;28;96879;-75
2022/02/27 00:50:54;;;;;;;13.23;5.07;;;;;;;6.98;52.95;103340.53;4992638;28;97744;-75
2022/02/27 00:53:21;;;;;;;10.25;4.93;;;;;;;7.18;52.36;103336.56;4983625;28;99814;-75
2022/02/27 00:55:47;;;;;;;13.95;5.10;;;;;;;6.82;53.16;103331.47;4988377;28;99159;-76
2022/02/27 00:58:13;;;;;;;14.18;4.97;;;;;;;6.78;53.69;103330.47;4982855;28;96780;-76
2022/02/27 01:00:40;;;;;;;14.40;5.55;;;;;;;7.05;52.95;103334.53;4987329;28;96794;-76
2022/02/27 01:03:07;;;;;;;11.57;5.43;;;;;;;7.02;53.09;103334.50;4988920;28;101280;-75
2022/02/27 01:05:34;;;;;;;13.20;5.20;;;;;;;6.88;53.28;103336.84;4987849;28;98983;-76
2022/02/27 01:08:00;;;;;;;16.95;5.07;;;;;;;6.73;53.70;103332.13;4993998;28;96742;-76
2022/02/27 01:10:27;;;;;;;18.88;6.00;;;;;;;7.22;52.65;103329.63;4987798;28;97599;-76
2022/02/27 01:12:53;;;;;;;13.63;5.35;;;;;;;7.25;52.54;103335.81;4989281;28;99201;-76
2022/02/27 01:15:20;;;;;;;11.02;4.72;;;;;;;6.98;53.15;103335.25;4993867;28;98914;-76
2022/02/27 01:17:47;;;;;;;14.98;5.22;;;;;;;7.01;53.33;103335.34;4990882;28;97707;-75
2022/02/27 01:20:15;;;;;;;19.17;5.03;;;;;;;7.18;52.97;103336.56;4987874;28;97001;-75
2022/02/27 01:22:41;;;;;;;12.95;5.40;;;;;;;6.88;53.41;103334.22;4995103;28;99184;-76
2022/02/27 01:25:10;;;;;;;18.10;5.20;;;;;;;6.95;53.57;103328.22;4993876;28;99177;-76
2022/02/27 01:27:37;;;;;;;15.63;5.57;;;;;;;7.31;52.17;103335.94;4990535;28;97829;-75
2022/02/27 01:30:07;;;;;;;15.52;5.75;;;;;;;7.08;52.73;103327.63;4995907;28;96805;-75
2022/02/27 01:32:33;;;;;;;17.73;6.90;;;;;;;7.40;52.02;103328.22;4995180;28;99976;-75
2022/02/27 01:34:59;;;;;;;16.27;5.93;;;;;;;7.39;52.17;103328.19;4995349;28;99507;-73
2022/02/27 01:37:27;;;;;;;17.88;7.65;;;;;;;7.11;52.30;103324.13;4988529;28;97351;-75
2022/02/27 01:39:53;;;;;;;22.08;7.18;;;;;;;7.34;51.94;103321.97;4989087;28;96867;-76
2022/02/27 01:42:19;;;;;;;19.25;6.38;;;;;;;7.32;52.12;103321.03;4992201;28;99386;-76
2022/02/27 01:44:46;;;;;;;13.65;5.68;;;;;;;7.22;52.35;103327.84;4988987;28;98987;-74
2022/02/27 01:47:14;;;;;;;13.75;5.75;;;;;;;7.02;52.95;103323.97;4989526;28;96937;-75
2022/02/27 01:49:41;;;;;;;18.00;7.45;;;;;;;7.15;52.73;103328.63;4992027;28;97201;-75
2022/02/27 01:52:08;;;;;;;18.20;7.05;;;;;;;7.29;52.02;103316.59;4986616;28;99454;-74
2022/02/27 01:54:36;;;;;;;29.20;12.13;;;;;;;6.97;52.47;103315.97;4992173;28;99312;-75
2022/02/27 01:57:03;;;;;;;14.63;6.03;;;;;;;7.08;52.76;103321.47;4997452;28;96781;-75
2022/02/27 01:59:29;;;;;;;15.80;6.43;;;;;;;7.24;52.00;103320.88;4992668;28;98566;-75
2022/02/27 02:01:56;;;;;;;14.68;5.25;;;;;;;6.79;53.61;103319.13;4988479;28;99225;-75
2022/02/27 02:04:22;;;;;;;20.70;5.88;;;;;;;7.42;51.59;103322.97;4989076;28;99014;-74
2022/02/27 02:06:48;;;;;;;13.48;5.82;;;;;;;7.02;52.51;103324.84;4992720;28;96932;-74
2022/02/27 02:09:15;;;;;;;20.10;6.93;;;;;;;6.98;52.94;103320.38;4987342;28;96916;-74
2022/02/27 02:11:42;;;;;;;17.92;7.32;;;;;;;6.67;53.27;103324.13;4993975;28;98996;-74
2022/02/27 02:14:09;;;;;;;18.88;7.28;;;;;;;6.23;54.83;103331.03;4988265;28;97796;-74
2022/02/27 02:16:40;;;;;;;18.35;7.43;;;;;;;6.51;54.20;103329.00;5000798;22;96932;-75
2022/02/27 02:19:06;;;;;;;15.38;6.60;;;;;;;6.51;54.32;103334.25;4956326;28;98795;-75
2022/02/27 02:21:38;;;;;;;18.50;7.03;;;;;;;6.39;54.37;103330.50;4955834;28;99152;-76
2022/02/27 02:24:05;;;;;;;17.83;7.90;;;;;;;6.42;54.29;103324.44;4963593;28;98914;-76
2022/02/27 02:26:32;;;;;;;20.88;6.78;;;;;;;6.51;54.18;103322.00;4953682;28;96847;-76
2022/02/27 02:28:58;;;;;;;21.33;7.80;;;;;;;6.49;54.54;103334.25;4953458;28;96931;-75
2022/02/27 02:31:25;;;;;;;20.27;7.78;;;;;;;6.51;54.21;103327.25;4954662;28;97972;-75
2022/02/27 02:33:51;;;;;;;21.48;6.93;;;;;;;6.41;54.55;103327.91;4953418;28;98801;-75
2022/02/27 02:36:17;;;;;;;19.13;7.18;;;;;;;6.25;54.84;103336.28;4953693;28;96799;-74
2022/02/27 02:38:45;;;;;;;16.95;6.50;;;;;;;5.87;55.54;103338.88;4953708;28;96939;-75
2022/02/27 02:41:11;;;;;;;19.35;7.22;;;;;;;5.54;56.91;103335.38;4951714;28;99454;-75
2022/02/27 02:43:38;;;;;;;19.17;7.03;;;;;;;5.66;56.61;103338.31;4952836;28;98181;-75
2022/02/27 02:46:04;;;;;;;25.13;8.13;;;;;;;5.80;56.07;103342.16;4949536;28;97404;-75
2022/02/27 02:48:30;;;;;;;23.17;7.55;;;;;;;5.72;56.23;103346.31;4953191;28;96749;-75
2022/02/27 02:50:57;;;;;;;15.02;7.18;;;;;;;6.00;56.11;103346.22;4956901;28;99400;-76
2022/02/27 02:53:34;;;;;;;19.88;7.80;;;;;;;5.35;57.48;103343.59;4953980;28;98318;-75
2022/02/27 02:56:02;;;;;;;17.05;7.00;;;;;;;5.54;56.99;103343.22;4952958;28;97823;-75
2022/02/27 02:58:29;;;;;;;19.55;7.13;;;;;;;5.51;57.69;103343.16;4951024;28;96922;-75
2022/02/27 03:00:55;;;;;;;18.95;7.38;;;;;;;5.46;57.40;103345.66;4949003;28;98917;-75
2022/02/27 03:03:22;;;;;;;17.60;7.63;;;;;;;5.13;58.02;103343.00;4956697;28;97820;-75
2022/02/27 03:05:48;;;;;;;21.92;7.63;;;;;;;5.30;57.75;103347.81;4953578;28;97077;-75
2022/02/27 03:08:15;;;;;;;18.23;7.82;;;;;;;5.78;56.33;103349.09;4950504;28;96959;-73
2022/02/27 03:10:41;;;;;;;15.68;8.30;;;;;;;5.64;56.54;103353.13;4953318;28;98469;-74
2022/02/27 03:13:09;;;;;;;20.08;8.32;;;;;;;5.49;57.05;103350.09;4951902;28;101590;-74
2022/02/27 03:15:35;;;;;;;23.00;8.32;;;;;;;5.14;58.54;103350.00;4950846;28;96832;-75
2022/02/27 03:18:01;;;;;;;17.90;7.30;;;;;;;4.91;59.20;103348.50;4952796;28;96750;-74
2022/02/27 03:20:28;;;;;;;19.83;8.20;;;;;;;5.18;58.29;103351.91;4948463;28;101862;-74
2022/02/27 03:22:54;;;;;;;17.35;7.85;;;;;;;5.47;57.46;103357.03;4952676;28;97608;-75
2022/02/27 03:25:20;;;;;;;18.77;8.27;;;;;;;5.20;58.06;103350.19;4955519;28;96951;-74
2022/02/27 03:27:47;;;;;;;25.05;8.15;;;;;;;5.04;58.20;103353.22;4951071;28;96868;-74
2022/02/27 03:30:15;;;;;;;20.27;7.95;;;;;;;5.30;57.69;103355.69;4952052;28;99187;-74
2022/02/27 03:32:46;;;;;;;20.52;8.27;;;;;;;5.48;57.04;103349.22;4948791;28;98883;-75
2022/02/27 03:35:12;;;;;;;24.58;8.10;;;;;;;5.46;57.12;103355.25;4944991;28;97285;-74
2022/02/27 03:37:38;;;;;;;22.58;8.88;;;;;;;5.61;56.54;103355.66;4950725;28;97029;-75
2022/02/27 03:40:06;;;;;;;24.80;9.05;;;;;;;5.70;56.12;103355.91;4952096;28;101955;-74
2022/02/27 03:42:33;;;;;;;23.02;9.20;;;;;;;5.64;56.20;103355.75;4949295;28;101389;-74
2022/02/27 03:44:59;;;;;;;29.30;10.45;;;;;;;5.56;56.22;103357.28;4956842;28;96847;-74
2022/02/27 03:47:27;;;;;;;24.75;9.85;;;;;;;5.63;56.03;103353.09;4947071;28;97048;-74
2022/02/27 03:49:54;;;;;;;29.77;11.02;;;;;;;5.22;57.63;103356.38;4946870;28;99057;-76
2022/02/27 03:52:20;;;;;;;27.63;9.82;;;;;;;5.34;57.18;103357.53;4948640;28;99396;-76
2022/02/27 03:54:47;;;;;;;29.27;9.98;;;;;;;5.26;57.33;103365.19;4958624;28;97149;-76
2022/02/27 03:57:13;;;;;;;28.85;10.82;;;;;;;5.07;57.58;103355.94;4948425;28;96915;-76
2022/02/27 03:59:40;;;;;;;24.67;8.75;;;;;;;4.91;57.86;103361.59;4950552;28;99039;-76
2022/02/27 04:02:06;;;;;;;21.38;9.52;;;;;;;5.30;57.58;103363.56;4952294;28;98800;-76
2022/02/27 04:04:34;;;;;;;20.52;8.95;;;;;;;5.35;56.83;103372.44;4945148;28;97513;-77
2022/02/27 04:07:01;;;;;;;27.85;8.93;;;;;;;5.57;56.56;103366.94;4952314;28;96881;-77
2022/02/27 04:09:27;;;;;;;28.75;9.20;;;;;;;6.10;54.77;103365.72;4951399;28;102306;-77
2022/02/27 04:11:53;;;;;;;25.10;9.65;;;;;;;6.14;54.40;103366.66;4951617;28;99428;-77
2022/02/27 04:14:19;;;;;;;25.75;10.00;;;;;;;6.14;54.37;103358.78;4949351;28;96858;-76
2022/02/27 04:16:46;;;;;;;30.75;10.75;;;;;;;6.48;53.16;103366.63;4952210;28;96896;-76
2022/02/27 04:19:12;;;;;;;24.27;9.75;;;;;;;6.11;54.35;103359.59;4954633;28;99504;-75
2022/02/27 04:21:40;;;;;;;27.27;9.65;;;;;;;6.30;53.23;103367.03;4953383;28;99629;-75
2022/02/27 04:24:06;;;;;;;24.95;10.38;;;;;;;6.15;53.92;103368.44;4958078;28;98556;-75
2022/02/27 04:26:32;;;;;;;25.95;10.10;;;;;;;5.93;54.29;103380.13;4954962;28;97008;-76
2022/02/27 04:28:59;;;;;;;24.45;9.75;;;;;;;6.00;54.32;103379.44;4954559;28;99131;-75
2022/02/27 04:31:25;;;;;;;32.40;10.85;;;;;;;6.43;53.42;103383.13;4951667;28;99078;-76
2022/02/27 04:33:52;;;;;;;22.80;8.77;;;;;;;6.33;53.49;103382.88;4948971;28;96899;-75
2022/02/27 04:36:18;;;;;;;18.80;8.73;;;;;;;6.20;53.93;103379.94;4951307;28;97300;-76
2022/02/27 04:38:46;;;;;;;28.27;10.50;;;;;;;6.19;53.53;103367.66;4949105;28;98998;-75
2022/02/27 04:41:18;;;;;;;23.48;9.43;;;;;;;6.35;53.30;103369.81;4950577;28;99511;-75
2022/02/27 04:43:44;;;;;;;26.42;9.68;;;;;;;6.50;52.60;103374.53;4946181;28;96876;-75
2022/02/27 04:46:10;;;;;;;22.95;9.18;;;;;;;6.25;53.59;103373.94;4949440;28;96995;-75
2022/02/27 04:48:37;;;;;;;19.63;8.20;;;;;;;6.10;53.94;103383.19;4952488;28;99075;-75
2022/02/27 04:51:03;;;;;;;20.95;8.07;;;;;;;5.95;54.96;103384.59;4946045;28;99552;-75
2022/02/27 04:53:29;;;;;;;19.52;8.07;;;;;;;5.73;55.82;103384.84;4949429;28;96875;-75
2022/02/27 04:55:57;;;;;;;22.40;7.95;;;;;;;5.43;56.39;103384.91;4951874;28;96914;-75
2022/02/27 04:58:23;;;;;;;18.75;8.45;;;;;;;5.49;56.91;103384.19;4949727;28;99419;-75
2022/02/27 05:00:50;;;;;;;18.60;8.07;;;;;;;5.60;56.28;103380.13;4950494;28;100742;-75
2022/02/27 05:03:16;;;;;;;28.17;9.30;;;;;;;5.63;56.39;103387.19;4951739;28;96830;-75
2022/02/27 05:05:43;;;;;;;18.30;7.90;;;;;;;5.63;56.50;103388.06;4950081;28;96769;-75
2022/02/27 05:08:09;;;;;;;19.85;7.18;;;;;;;5.56;56.60;103391.38;4947374;28;99381;-76
2022/02/27 05:10:36;;;;;;;22.00;7.25;;;;;;;5.39;57.40;103384.75;4949677;28;99282;-75
2022/02/27 05:13:04;;;;;;;20.88;7.50;;;;;;;5.11;58.09;103394.50;4947535;28;96776;-75
2022/02/27 05:15:31;;;;;;;18.38;7.10;;;;;;;5.36;57.16;103392.56;4951678;28;99069;-75
2022/02/27 05:17:57;;;;;;;23.50;8.07;;;;;;;5.37;57.08;103391.72;4952033;28;98910;-75
2022/02/27 05:20:24;;;;;;;20.20;7.32;;;;;;;4.94;58.49;103400.06;4954215;28;98990;-74
2022/02/27 05:22:52;;;;;;;17.48;7.97;;;;;;;4.78;59.38;103399.63;4949889;28;96848;-75
2022/02/27 05:25:20;;;;;;;17.77;7.85;;;;;;;4.76;59.77;103405.66;4952365;28;96802;-75
2022/02/27 05:27:48;;;;;;;17.95;7.80;;;;;;;4.80;59.29;103403.16;4950118;28;101340;-75
2022/02/27 05:30:16;;;;;;;18.35;7.57;;;;;;;4.73;59.49;103401.19;4949863;28;99458;-75
2022/02/27 05:32:43;;;;;;;21.80;7.75;;;;;;;5.07;57.63;103400.47;4951568;28;96926;-75
2022/02/27 05:35:10;;;;;;;18.23;7.55;;;;;;;4.56;59.53;103402.41;4954570;28;97434;-75
2022/02/27 05:37:36;;;;;;;22.33;8.93;;;;;;;4.29;61.02;103404.16;4948599;28;98910;-75
2022/02/27 05:40:04;;;;;;;16.35;7.03;;;;;;;4.28;60.59;103411.13;4949532;28;98984;-75
2022/02/27 05:42:30;;;;;;;17.17;7.32;;;;;;;4.48;59.75;103410.88;4946074;28;98236;-74
2022/02/27 05:44:57;;;;;;;18.88;7.45;;;;;;;4.61;59.32;103421.78;4953696;28;96800;-75
2022/02/27 05:47:24;;;;;;;16.25;7.03;;;;;;;4.66;59.00;103419.31;4946754;28;98148;-74
2022/02/27 05:49:51;;;;;;;23.55;8.75;;;;;;;4.56;59.42;103426.00;4950679;28;101822;-75
2022/02/27 05:52:17;;;;;;;19.15;7.88;;;;;;;4.69;59.23;103422.91;4946403;28;97025;-75
2022/02/27 05:54:44;;;;;;;21.95;7.90;;;;;;;4.52;59.49;103426.75;4951382;28;97026;-75
2022/02/27 05:57:10;;;;;;;17.48;7.68;;;;;;;4.60;58.65;103424.34;4952183;28;98641;-75
2022/02/27 05:59:36;;;;;;;19.00;7.80;;;;;;;4.59;58.33;103431.34;4956851;28;99590;-75
2022/02/27 06:02:03;;;;;;;22.00;7.90;;;;;;;4.49;59.13;103425.75;4962396;28;97551;-74
2022/02/27 06:04:31;;;;;;;17.10;7.30;;;;;;;4.33;59.75;103420.00;4965140;28;96880;-75
2022/02/27 06:06:59;;;;;;;18.60;7.50;;;;;;;4.53;58.94;103422.41;4958437;28;98345;-73
2022/02/27 06:09:26;;;;;;;22.40;8.32;;;;;;;4.66;59.05;103419.31;4969456;28;96776;-75
2022/02/27 06:11:52;;;;;;;20.38;7.28;;;;;;;4.77;58.04;103417.91;4966608;28;99197;-75
2022/02/27 06:14:19;;;;;;;19.27;7.82;;;;;;;5.11;57.09;103420.72;4968859;28;97065;-76
2022/02/27 06:16:45;;;;;;;18.83;7.53;;;;;;;5.33;56.49;103423.94;4966588;28;97874;-75
2022/02/27 06:19:12;;;;;;;20.65;7.85;;;;;;;5.28;56.39;103423.81;4957902;28;97809;-75
2022/02/27 06:21:39;;;;;;;17.88;7.88;;;;;;;5.22;56.89;103424.53;4949160;28;97789;-76
2022/02/27 06:24:07;;;;;;;17.02;7.03;;;;;;;4.96;57.23;103427.22;4953868;28;96863;-76
2022/02/27 06:26:34;;;;;;;23.30;7.82;;;;;;;5.06;57.37;103427.53;4952426;28;99330;-76
2022/02/27 06:29:02;;;;;;;17.65;6.80;;;;;;;4.82;58.18;103432.94;4959305;28;99423;-77
2022/02/27 06:31:29;;;;;;;23.40;7.30;;;;;;;5.07;57.68;103434.56;4955656;28;97470;-75
2022/02/27 06:33:55;;;;;;;16.83;7.22;;;;;;;5.11;57.58;103433.81;4959297;28;97684;-75
2022/02/27 06:36:21;;;;;;;15.13;6.75;;;;;;;5.16;57.67;103439.19;4956658;28;99237;-75
2022/02/27 06:38:49;;;;;;;20.83;7.80;;;;;;;5.16;57.92;103445.31;4955086;28;99484;-76
2022/02/27 06:41:16;;;;;;;19.73;8.02;;;;;;;4.80;58.60;103449.44;4960192;28;96904;-75
2022/02/27 06:43:42;;;;;;;17.65;6.95;;;;;;;4.67;58.97;103442.91;4952979;28;96928;-75
2022/02/27 06:46:09;;;;;;;17.27;8.13;;;;;;;4.70;59.13;103448.28;4952751;28;98167;-73
2022/02/27 06:48:36;;;;;;;21.00;7.50;;;;;;;5.24;58.01;103447.28;4951670;28;98712;-75
2022/02/27 06:51:02;;;;;;;18.98;7.43;;;;;;;5.32;57.80;103449.25;4959292;28;96662;-73
2022/02/27 06:53:28;;;;;;;14.98;7.32;;;;;;;5.29;57.93;103457.06;4953011;28;96909;-74
2022/02/27 06:55:56;;;;;;;20.25;7.28;;;;;;;4.85;59.16;103453.09;4951400;28;99495;-74
2022/02/27 06:58:23;;;;;;;23.05;7.57;;;;;;;5.20;58.39;103457.66;4952305;28;99024;-74
2022/02/27 07:00:49;;;;;;;19.75;7.63;;;;;;;5.63;57.57;103458.00;4953170;28;96774;-75
2022/02/27 07:03:16;;;;;;;18.45;7.50;;;;;;;5.50;57.17;103459.41;4951109;28;96941;-74
2022/02/27 07:05:42;;;;;;;18.20;7.88;;;;;;;6.14;55.52;103458.53;4949451;28;98972;-75
2022/02/27 07:08:09;;;;;;;19.45;7.22;;;;;;;6.64;54.38;103457.16;4948405;28;99055;-74
2022/02/27 07:10:35;;;;;;;15.52;7.70;;;;;;;6.63;54.15;103463.28;4950935;28;97536;-74
2022/02/27 07:13:03;;;;;;;16.15;7.45;;;;;;;6.68;53.94;103465.16;4954256;28;97933;-76
2022/02/27 07:15:30;;;;;;;23.15;7.95;;;;;;;6.07;55.50;103464.47;4950517;28;99572;-74
2022/02/27 07:17:56;;;;;;;19.38;7.72;;;;;;;6.16;55.55;103462.09;4952030;28;98737;-74
2022/02/27 07:20:23;;;;;;;17.42;7.40;;;;;;;6.48;54.90;103460.28;4952142;28;96826;-74
2022/02/27 07:22:50;;;;;;;16.77;7.68;;;;;;;6.54;54.45;103466.56;4950842;28;98607;-74
2022/02/27 07:25:16;;;;;;;18.92;7.40;;;;;;;6.52;54.63;103467.38;4948817;28;98914;-76
2022/02/27 07:27:42;;;;;;;25.38;8.15;;;;;;;6.28;55.66;103468.56;4951290;28;98889;-76
2022/02/27 07:30:12;;;;;;;23.80;7.95;;;;;;;6.43;55.83;103473.31;4950844;28;97266;-76
2022/02/27 07:32:38;;;;;;;23.13;8.18;;;;;;;6.65;54.74;103478.22;4949102;28;97005;-75
2022/02/27 07:35:05;;;;;;;23.90;7.55;;;;;;;6.87;54.18;103482.25;4951665;28;98930;-76
2022/02/27 07:37:34;;;;;;;19.85;7.47;;;;;;;6.14;56.59;103484.81;4949485;28;99164;-76
2022/02/27 07:40:00;;;;;;;20.58;8.05;;;;;;;6.11;57.06;103484.69;4951523;28;97137;-76
2022/02/27 07:42:26;;;;;;;19.50;8.40;;;;;;;6.45;56.10;103482.09;4949785;28;96940;-75
2022/02/27 07:44:55;;;;;;;22.85;7.80;;;;;;;6.26;55.94;103479.84;4951952;28;98926;-75
2022/02/27 07:47:23;;;;;;;17.92;8.68;;;;;;;6.31;55.85;103479.13;4949550;28;99251;-77
2022/02/27 07:49:49;;;;;;;26.63;8.40;;;;;;;6.37;55.82;103483.63;4950596;28;96846;-75
2022/02/27 07:52:16;;;;;;;21.02;8.38;;;;;;;6.45;55.51;103481.22;4948277;28;96954;-75
2022/02/27 07:54:42;;;;;;;21.48;8.40;;;;;;;6.41;55.13;103482.88;4952283;28;99153;-76
2022/02/27 07:57:08;;;;;;;18.65;8.55;;;;;;;6.87;54.87;103486.63;4948424;28;98538;-76
2022/02/27 07:59:35;;;;;;;18.92;8.40;;;;;;;7.27;53.56;103478.75;4962596;28;96788;-76
2022/02/27 08:02:01;;;;;;;19.52;9.00;;;;;;;7.61;52.35;103481.22;4951164;28;97131;-75
2022/02/27 08:04:29;;;;;;;25.58;9.05;;;;;;;7.61;52.48;103478.59;4956050;28;99175;-75
2022/02/27 08:06:55;;;;;;;20.77;8.73;;;;;;;7.54;52.44;103468.81;4954042;28;99458;-76
2022/02/27 08:09:22;;;;;;;25.70;9.18;;;;;;;7.65;52.24;103481.28;4954940;28;96809;-77
2022/02/27 08:11:48;;;;;;;20.38;9.13;;;;;;;6.97;54.13;103483.34;4953729;28;96786;-75
2022/02/27 08:14:15;;;;;;;25.38;8.55;;;;;;;7.14;53.92;103476.72;4955626;28;99392;-74
2022/02/27 08:16:41;;;;;;;17.58;8.75;;;;;;;7.31;53.45;103475.34;4952569;28;98851;-72
2022/02/27 08:19:07;;;;;;;23.83;8.73;;;;;;;7.40;53.34;103487.81;5025833;22;97011;-74
2022/02/27 08:21:35;;;;;;;23.20;9.70;;;;;;;7.77;52.10;103492.94;5014126;28;98733;-76
2022/02/27 08:24:01;;;;;;;19.95;9.02;;;;;;;7.70;52.63;103482.25;5013299;28;99471;-74
2022/02/27 08:26:28;;;;;;;18.48;9.23;;;;;;;8.07;51.61;103492.66;5017940;28;98864;-74
2022/02/27 08:28:54;;;;;;;24.80;10.77;;;;;;;8.37;50.64;103487.94;5000478;28;96794;-75
2022/02/27 08:31:20;;;;;;;29.45;8.90;;;;;;;8.20;51.25;103489.38;4999936;28;96807;-74
2022/02/27 08:33:46;;;;;;;20.23;9.35;;;;;;;8.54;50.33;103476.78;4999378;28;99643;-74
2022/02/27 08:36:15;;;;;;;18.35;8.25;;;;;;;8.25;50.87;103492.97;4997901;28;98994;-76
2022/02/27 08:38:43;;;;;;;20.52;8.65;;;;;;;8.71;50.13;103491.13;4995190;28;97011;-74
2022/02/27 08:41:09;;;;;;;22.92;8.73;;;;;;;7.93;52.31;103488.88;4988735;28;97183;-75
2022/02/27 08:43:36;;;;;;;18.63;7.97;;;;;;;7.67;52.92;103491.00;4994485;28;99313;-75
2022/02/27 08:46:02;;;;;;;19.25;8.57;;;;;;;8.11;51.93;103485.69;4989974;28;101615;-75
2022/02/27 08:48:30;;;;;;;20.92;8.75;;;;;;;7.72;53.43;103489.34;4992274;28;96820;-76
2022/02/27 08:50:56;;;;;;;18.98;9.52;;;;;;;8.54;51.24;103487.31;4998303;28;96773;-76
2022/02/27 08:53:23;;;;;;;23.02;8.75;;;;;;;8.69;50.80;103496.38;4995209;28;99466;-76
2022/02/27 08:55:50;;;;;;;20.75;8.35;;;;;;;9.06;49.67;103484.63;4996853;28;99015;-75
2022/02/27 08:58:17;;;;;;;21.60;8.43;;;;;;;8.98;49.73;103488.03;4996824;28;97737;-76
2022/02/27 09:00:43;;;;;;;22.80;8.75;;;;;;;8.94;49.73;103487.09;4996781;28;97046;-77
2022/02/27 09:03:10;;;;;;;23.30;8.70;;;;;;;8.61;50.90;103484.81;4986872;28;99162;-75
2022/02/27 09:05:37;;;;;;;20.80;8.70;;;;;;;8.48;50.74;103495.13;4989888;28;98116;-76
2022/02/27 09:08:03;;;;;;;20.48;9.23;;;;;;;8.09;52.46;103490.91;4990913;28;98912;-75
2022/02/27 09:10:30;;;;;;;18.52;9.20;;;;;;;8.42;51.52;103489.75;4992976;28;98996;-76
2022/02/27 09:12:58;;;;;;;20.58;8.80;;;;;;;8.40;51.36;103487.13;4991153;28;99310;-75
2022/02/27 09:15:24;;;;;;;22.33;9.57;;;;;;;8.54;51.71;103487.31;4992493;28;99435;-76
2022/02/27 09:17:51;;;;;;;21.38;8.82;;;;;;;8.85;50.63;103486.97;4991947;28;98901;-76
2022/02/27 09:20:17;;;;;;;20.73;9.23;;;;;;;9.29;50.01;103484.06;4991578;28;98916;-76
2022/02/27 09:22:44;;;;;;;21.25;9.60;;;;;;;9.21;50.13;103497.13;4991729;28;98979;-75
2022/02/27 09:25:10;;;;;;;23.70;10.95;;;;;;;9.10;50.13;103490.84;4995462;28;99067;-76
2022/02/27 09:27:37;;;;;;;21.48;11.00;;;;;;;9.23;49.37;103489.25;4991244;28;97263;-76
2022/02/27 09:30:05;;;;;;;23.42;10.77;;;;;;;9.77;48.78;103489.06;4994312;28;96884;-75
2022/02/27 09:32:31;;;;;;;23.15;11.10;;;;;;;9.28;49.56;103490.19;4994710;28;99145;-75
2022/02/27 09:34:58;;;;;;;31.17;12.55;;;;;;;9.03;50.39;103487.22;4992439;28;101995;-74
2022/02/27 09:37:25;;;;;;;23.70;11.75;;;;;;;9.63;49.01;103485.38;4996383;28;97167;-75
2022/02/27 09:39:53;;;;;;;30.45;13.05;;;;;;;9.02;50.35;103490.72;4998529;28;97608;-77
2022/02/27 09:42:20;;;;;;;28.35;13.63;;;;;;;9.64;48.98;103488.03;4996156;28;99496;-76
2022/02/27 09:44:46;;;;;;;27.85;13.20;;;;;;;9.76;48.76;103493.44;5007214;28;98970;-76
2022/02/27 09:47:15;;;;;;;27.73;14.18;;;;;;;9.43;49.23;103491.28;5000705;28;97932;-76
2022/02/27 09:49:45;;;;;;;33.17;15.18;;;;;;;9.77;48.38;103487.31;5004338;28;97603;-77
2022/02/27 09:52:12;;;;;;;29.15;14.98;;;;;;;9.18;49.40;103489.19;5001430;28;97662;-75
2022/02/27 09:54:39;;;;;;;32.55;15.65;;;;;;;9.47;49.15;103492.19;4997949;28;98936;-77
2022/02/27 09:57:06;;;;;;;35.15;15.95;;;;;;;9.59;48.79;103489.72;4998006;28;98921;-78
2022/02/27 09:59:32;;;;;;;29.65;15.85;;;;;;;9.70;48.62;103492.50;4996595;28;97112;-76
2022/02/27 10:02:04;;;;;;;32.20;16.45;;;;;;;10.28;47.36;103486.09;4995133;28;99062;-76
2022/02/27 10:04:36;;;;;;;34.92;15.90;;;;;;;10.31;46.84;103489.63;4996299;28;98912;-76
2022/02/27 10:07:09;;;;;;;30.70;14.85;;;;;;;9.79;48.29;103493.47;5003085;28;96903;-77
2022/02/27 10:09:35;;;;;;;31.85;16.38;;;;;;;9.56;48.74;103493.22;4991573;28;97672;-76
2022/02/27 10:12:16;;;;;;;34.75;17.38;;;;;;;9.58;48.65;103496.75;4995893;28;99223;-77
2022/02/27 10:14:55;;;;;;;36.78;17.58;;;;;;;9.37;49.45;103500.88;4998515;28;99655;-77
2022/02/27 10:17:28;;;;;;;30.88;16.33;;;;;;;10.32;47.70;103493.16;4996997;28;99178;-79
2022/02/27 10:19:56;;;;;;;39.67;18.25;;;;;;;10.45;46.74;103494.16;4996586;28;97099;-78
2022/02/27 10:22:29;;;;;;;36.00;17.85;;;;;;;10.61;46.68;103490.78;5000005;28;100169;-77
2022/02/27 10:24:55;;;;;;;38.25;16.98;;;;;;;10.45;47.26;103497.69;5002014;28;98074;-77
2022/02/27 10:27:22;;;;;;;35.90;18.10;;;;;;;9.92;48.37;103494.50;5001768;28;98889;-76
2022/02/27 10:29:48;;;;;;;32.05;17.02;;;;;;;10.09;47.90;103497.31;4996550;28;97216;-76
2022/02/27 10:32:14;;;;;;;37.67;18.02;;;;;;;9.83;48.37;103492.66;4992607;28;98977;-75
2022/02/27 10:34:41;;;;;;;34.90;18.33;;;;;;;10.25;47.99;103491.34;5003956;28;100900;-76
2022/02/27 10:37:10;;;;;;;35.10;19.33;;;;;;;10.90;46.64;103483.91;4996672;28;97165;-78
2022/02/27 10:39:39;;;;;;;35.13;17.40;;;;;;;10.95;46.20;103486.63;4995236;28;97061;-77
2022/02/27 10:42:11;;;;;;;39.72;18.42;;;;;;;11.32;45.38;103483.28;4995870;28;99024;-79
2022/02/27 10:44:39;;;;;;;37.90;18.13;;;;;;;11.25;45.38;103486.78;4996640;28;101838;-77
2022/02/27 10:47:10;;;;;;;35.08;18.35;;;;;;;11.28;44.82;103480.63;4995723;28;96862;-76
2022/02/27 10:49:37;;;;;;;37.53;18.55;;;;;;;11.48;44.83;103477.19;4998491;28;96819;-77
2022/02/27 10:52:18;;;;;;;32.47;18.73;;;;;;;9.74;48.54;103484.63;4996570;28;99440;-76
2022/02/27 10:54:47;;;;;;;39.92;20.08;;;;;;;10.27;47.70;103481.66;4997319;28;100057;-77
2022/02/27 10:57:32;;;;;;;39.13;19.92;;;;;;;9.73;49.14;103482.84;4994003;28;96817;-76
2022/02/27 11:00:06;;;;;;;43.03;18.90;;;;;;;10.04;48.07;103485.81;4993816;28;98637;-78
2022/02/27 11:02:34;;;;;;;35.10;17.40;;;;;;;10.39;47.78;103471.19;4997128;28;98939;-76
2022/02/27 11:05:02;;;;;;;35.88;18.33;;;;;;;10.21;48.17;103474.56;4997829;28;99295;-76
2022/02/27 11:07:30;;;;;;;36.78;19.20;;;;;;;9.62;49.35;103468.63;4997183;28;97886;-74
2022/02/27 11:09:57;;;;;;;37.55;18.35;;;;;;;9.60;49.61;103470.38;4997427;28;97435;-76
2022/02/27 11:12:23;;;;;;;38.55;17.77;;;;;;;9.75;49.09;103460.00;4997041;28;99824;-76
2022/02/27 11:14:53;;;;;;;36.78;18.30;;;;;;;9.96;49.00;103454.06;5002136;28;98970;-76
2022/02/27 11:17:20;;;;;;;41.40;18.95;;;;;;;9.30;50.32;103470.00;4994741;28;97008;-77
2022/02/27 11:19:47;;;;;;;31.08;16.85;;;;;;;9.64;50.11;103466.91;4991923;28;97147;-75
2022/02/27 11:22:15;;;;;;;31.85;17.40;;;;;;;9.27;50.69;103462.03;4994028;28;99401;-76